createdAt,value
2019-01-20T00:01:00.671Z,79.37
2019-01-20T00:06:10.020Z,79.82
2019-01-20T00:11:22.024Z,79.97
2019-01-20T00:16:32.247Z,79.97
2019-01-20T00:21:41.993Z,79.82
2019-01-20T00:26:53.156Z,79.89
2019-01-20T00:32:03.822Z,79.20
2019-01-20T00:37:15.461Z,79.10
2019-01-20T00:42:25.131Z,79.47
2019-01-20T00:47:38.116Z,79.31
2019-01-20T00:52:52.016Z,79.27
2019-01-20T00:58:06.788Z,78.98
2019-01-20T01:03:16.987Z,78.78
2019-01-20T01:08:25.875Z,78.54
2019-01-20T01:13:39.293Z,78.48
2019-01-20T01:18:50.567Z,78.59
2019-01-20T01:23:59.478Z,78.70
2019-01-20T01:29:27.277Z,78.50
2019-01-20T01:34:36.168Z,78.24
2019-01-20T01:39:43.890Z,78.18
2019-01-20T01:44:54.615Z,78.18
2019-01-20T01:50:05.434Z,78.37
2019-01-20T01:55:17.519Z,78.71
2019-01-20T02:00:27.991Z,78.48
2019-01-20T02:05:34.551Z,78.68
2019-01-20T02:10:43.444Z,78.86
2019-01-20T02:15:55.044Z,78.23
2019-01-20T02:21:01.641Z,78.42
2019-01-20T02:26:12.418Z,78.42
2019-01-20T02:31:20.552Z,78.15
2019-01-20T02:36:30.307Z,77.86
2019-01-20T02:41:39.444Z,77.85
2019-01-20T02:46:48.748Z,77.06
2019-01-20T02:51:59.474Z,77.06
2019-01-20T02:57:08.290Z,76.95
2019-01-20T03:02:30.671Z,76.68
2019-01-20T03:07:47.334Z,76.44
2019-01-20T03:13:03.716Z,77.13
2019-01-20T03:18:10.510Z,77.36
2019-01-20T03:23:17.540Z,77.43
2019-01-20T03:28:29.478Z,77.60
2019-01-20T03:33:38.056Z,77.06
2019-01-20T03:38:47.813Z,77.08
2019-01-20T03:43:57.489Z,76.96
2019-01-20T03:49:03.219Z,76.81
2019-01-20T03:54:11.461Z,76.75
2019-01-20T03:59:23.322Z,76.78
2019-01-20T04:04:32.644Z,76.68
2019-01-20T04:09:43.302Z,76.53
2019-01-20T04:14:54.022Z,76.27
2019-01-20T04:20:23.235Z,76.44
2019-01-20T04:25:32.230Z,76.35
2019-01-20T04:30:40.228Z,76.56
2019-01-20T04:35:49.992Z,76.45
2019-01-20T04:41:00.762Z,76.71
2019-01-20T04:46:11.843Z,76.88
2019-01-20T04:51:20.902Z,76.96
2019-01-20T04:56:29.766Z,76.44
2019-01-20T05:01:39.465Z,76.53
2019-01-20T05:06:52.809Z,76.89
2019-01-20T05:12:03.534Z,76.75
2019-01-20T05:17:15.973Z,76.83
2019-01-20T05:22:29.390Z,76.94
2019-01-20T05:28:51.490Z,77.09
2019-01-20T05:34:01.286Z,76.95
2019-01-20T05:39:10.511Z,77.01
2019-01-20T05:44:19.942Z,77.33
2019-01-20T05:49:29.727Z,77.69
2019-01-20T05:54:37.231Z,77.37
2019-01-20T05:59:48.940Z,77.78
2019-01-20T06:05:00.147Z,77.78
2019-01-20T06:10:12.902Z,77.61
2019-01-20T06:15:25.487Z,77.38
2019-01-20T06:20:38.854Z,77.74
2019-01-20T06:25:48.590Z,78.14
2019-01-20T06:30:58.075Z,77.76
2019-01-20T06:36:05.955Z,77.37
2019-01-20T06:41:17.442Z,77.11
2019-01-20T06:46:28.108Z,77.03
2019-01-20T06:51:37.927Z,77.10
2019-01-20T06:56:47.305Z,77.19
2019-01-20T07:01:58.841Z,77.30
2019-01-20T07:07:07.268Z,77.22
2019-01-20T07:12:17.250Z,77.84
2019-01-20T07:17:25.924Z,78.23
2019-01-20T07:22:36.100Z,78.21
2019-01-20T07:27:46.787Z,78.49
2019-01-20T07:32:55.879Z,78.58
2019-01-20T07:38:04.375Z,77.90
2019-01-20T07:43:17.007Z,78.00
2019-01-20T07:48:23.043Z,77.94
2019-01-20T07:53:33.768Z,78.07
2019-01-20T07:58:42.748Z,77.77
2019-01-20T08:03:56.425Z,77.46
2019-01-20T08:09:03.463Z,76.90
2019-01-20T08:14:13.763Z,77.17
2019-01-20T08:19:23.149Z,77.33
2019-01-20T08:24:34.757Z,76.71
2019-01-20T08:29:43.619Z,76.74
2019-01-20T08:34:53.445Z,77.04
2019-01-20T08:40:00.981Z,76.55
2019-01-20T08:45:14.439Z,76.50
2019-01-20T08:50:26.895Z,76.24
2019-01-20T08:55:34.232Z,76.17
2019-01-20T09:00:49.351Z,75.29
2019-01-20T09:05:59.126Z,75.25
2019-01-20T09:11:08.842Z,74.93
2019-01-20T09:16:22.701Z,73.72
2019-01-20T09:21:29.846Z,73.41
2019-01-20T09:26:40.046Z,73.24
2019-01-20T09:31:49.868Z,74.17
2019-01-20T09:36:59.300Z,69.81
2019-01-20T09:42:09.990Z,73.03
2019-01-20T09:47:19.319Z,69.18
2019-01-20T09:52:28.128Z,65.50
2019-01-20T09:57:37.923Z,55.62
2019-01-20T10:02:52.488Z,58.13
2019-01-20T10:08:02.896Z,57.19
2019-01-20T10:13:12.675Z,53.89
2019-01-20T10:18:29.740Z,49.37
2019-01-20T10:23:40.805Z,46.26
2019-01-20T10:28:49.138Z,45.62
2019-01-20T10:34:02.520Z,42.86
2019-01-20T10:39:12.206Z,43.00
2019-01-20T10:44:26.272Z,41.63
2019-01-20T10:49:34.751Z,42.70
2019-01-20T10:54:44.845Z,41.24
2019-01-20T10:59:57.417Z,39.62
2019-01-20T11:05:05.402Z,38.53
2019-01-20T11:10:13.153Z,37.25
2019-01-20T11:15:27.405Z,38.81
2019-01-20T11:20:34.994Z,38.49
2019-01-20T11:25:50.372Z,38.67
2019-01-20T11:30:59.666Z,37.88
2019-01-20T11:36:08.546Z,39.39
2019-01-20T11:41:28.463Z,40.79
2019-01-20T11:46:39.111Z,38.36
2019-01-20T11:51:51.103Z,36.74
2019-01-20T11:57:02.675Z,37.65
2019-01-20T12:02:10.567Z,33.32
2019-01-20T12:07:21.267Z,32.51
2019-01-20T12:12:32.380Z,33.69
2019-01-20T12:17:40.329Z,30.43
2019-01-20T12:22:52.322Z,31.19
2019-01-20T12:28:02.569Z,26.71
2019-01-20T12:33:15.183Z,27.11
2019-01-20T12:38:25.894Z,26.06
2019-01-20T12:43:36.554Z,27.07
2019-01-20T12:48:43.305Z,23.52
2019-01-20T12:53:50.534Z,22.80
2019-01-20T12:59:02.751Z,22.11
2019-01-20T13:04:13.896Z,22.17
2019-01-20T13:09:22.509Z,23.62
2019-01-20T13:14:39.271Z,22.01
2019-01-20T13:19:47.296Z,23.76
2019-01-20T13:24:57.222Z,22.47
2019-01-20T13:30:09.939Z,21.85
2019-01-20T13:35:20.613Z,21.70
2019-01-20T13:40:39.223Z,20.35
2019-01-20T13:45:48.133Z,19.33
2019-01-20T13:51:00.741Z,20.78
2019-01-20T13:56:10.885Z,23.36
2019-01-20T14:01:24.066Z,23.47
2019-01-20T14:06:33.587Z,24.69
2019-01-20T14:11:43.344Z,24.40
2019-01-20T14:16:53.222Z,23.70
2019-01-20T14:22:00.935Z,22.74
2019-01-20T14:27:09.254Z,25.22
2019-01-20T14:32:22.787Z,30.52
2019-01-20T14:37:31.634Z,32.18
2019-01-20T14:42:39.711Z,34.63
2019-01-20T14:47:46.224Z,39.17
2019-01-20T14:52:53.922Z,39.22
2019-01-20T14:58:07.448Z,38.72
2019-01-20T15:03:18.894Z,38.64
2019-01-20T15:08:31.490Z,39.90
2019-01-20T15:13:44.945Z,44.75
2019-01-20T15:18:52.875Z,44.02
2019-01-20T15:24:02.242Z,44.02
2019-01-20T15:29:12.073Z,45.42
2019-01-20T15:34:19.457Z,47.11
2019-01-20T15:39:27.588Z,48.42
2019-01-20T15:44:36.725Z,48.75
2019-01-20T15:49:44.922Z,48.98
2019-01-20T15:54:53.015Z,49.44
2019-01-20T16:00:04.963Z,49.31
2019-01-20T16:05:14.269Z,49.67
2019-01-20T16:10:22.255Z,47.99
2019-01-20T16:15:36.189Z,48.44
2019-01-20T16:20:44.149Z,49.64
2019-01-20T16:25:53.862Z,50.30
2019-01-20T16:31:07.658Z,49.78
2019-01-20T16:36:17.659Z,50.35
2019-01-20T16:41:27.112Z,50.26
2019-01-20T16:46:39.622Z,50.94
2019-01-20T16:51:54.962Z,52.28
2019-01-20T16:57:06.562Z,51.47
2019-01-20T17:02:15.881Z,52.01
2019-01-20T17:07:26.799Z,52.65
2019-01-20T17:12:36.538Z,53.93
2019-01-20T17:17:47.238Z,53.93
2019-01-20T17:23:02.754Z,54.16
2019-01-20T17:28:11.464Z,54.50
2019-01-20T17:33:23.204Z,54.85
2019-01-20T17:38:30.236Z,54.89
2019-01-20T17:43:38.373Z,55.34
2019-01-20T17:48:48.181Z,55.85
2019-01-20T17:53:56.808Z,55.82
2019-01-20T17:59:04.986Z,56.12
2019-01-20T18:04:17.713Z,56.65
2019-01-20T18:09:45.962Z,56.98
2019-01-20T18:14:54.840Z,57.89
2019-01-20T18:20:07.301Z,59.27
2019-01-20T18:25:17.801Z,59.09
2019-01-20T18:30:27.903Z,59.28
2019-01-20T18:35:42.418Z,60.03
2019-01-20T18:40:50.982Z,62.61
2019-01-20T18:46:01.874Z,61.72
2019-01-20T18:51:11.983Z,62.33
2019-01-20T18:56:22.674Z,64.31
2019-01-20T19:01:31.080Z,63.28
2019-01-20T19:06:40.438Z,62.87
2019-01-20T19:11:49.813Z,63.06
2019-01-20T19:16:55.946Z,63.29
2019-01-20T19:22:07.721Z,63.49
2019-01-20T19:27:18.606Z,63.17
2019-01-20T19:32:30.406Z,62.95
2019-01-20T19:37:40.428Z,63.22
2019-01-20T19:42:49.029Z,63.83
2019-01-20T19:48:01.040Z,64.44
2019-01-20T19:53:14.574Z,65.16
2019-01-20T19:58:27.279Z,67.20
2019-01-20T20:03:36.964Z,67.59
2019-01-20T20:08:46.796Z,67.69
2019-01-20T20:13:59.781Z,68.11
2019-01-20T20:19:10.638Z,69.23
2019-01-20T20:24:25.251Z,68.43
2019-01-20T20:29:34.632Z,69.13
2019-01-20T20:34:48.137Z,69.50
2019-01-20T20:39:58.174Z,69.38
2019-01-20T20:45:08.424Z,68.54
2019-01-20T20:50:20.834Z,69.42
2019-01-20T20:55:28.134Z,68.56
2019-01-20T21:00:43.790Z,67.59
2019-01-20T21:05:53.508Z,67.84
2019-01-20T21:11:01.641Z,67.53
2019-01-20T21:16:11.431Z,68.06
2019-01-20T21:21:21.225Z,68.86
2019-01-20T21:26:30.982Z,69.59
2019-01-20T21:31:42.571Z,69.40
2019-01-20T21:36:50.960Z,70.20
2019-01-20T21:41:59.904Z,70.20
2019-01-20T21:47:12.103Z,69.74
2019-01-20T21:52:22.959Z,70.49
2019-01-20T21:57:32.008Z,69.98
2019-01-20T22:02:42.172Z,70.67
2019-01-20T22:07:50.591Z,71.01
2019-01-20T22:13:00.667Z,71.45
2019-01-20T22:18:11.559Z,71.54
2019-01-20T22:23:19.285Z,71.77
2019-01-20T22:28:29.592Z,71.78
2019-01-20T22:33:39.305Z,71.83
2019-01-20T22:38:51.013Z,71.57
2019-01-20T22:44:01.768Z,72.38
2019-01-20T22:49:11.114Z,72.03
2019-01-20T22:54:23.595Z,72.95
2019-01-20T22:59:32.455Z,72.64
2019-01-20T23:04:41.733Z,72.91
2019-01-20T23:09:52.397Z,73.23
2019-01-20T23:15:05.029Z,73.23
2019-01-20T23:20:14.031Z,73.66
2019-01-20T23:25:21.289Z,73.40
2019-01-20T23:30:28.849Z,74.44
2019-01-20T23:35:39.461Z,73.80
2019-01-20T23:40:49.424Z,73.75
2019-01-20T23:45:59.184Z,73.99
2019-01-20T23:51:08.296Z,73.78
2019-01-20T23:56:19.877Z,74.12
